sensor_id;sensor_type;location;lat;lon;timestamp;P1;durP1;ratioP1;P2;durP2;ratioP2
54937;SDS011;52756;52.826;6.214;2023-07-13T00:01:46;7.38;;;2.00;;
54937;SDS011;52756;52.826;6.214;2023-07-13T00:04:14;6.43;;;1.80;;
54937;SDS011;52756;52.826;6.214;2023-07-13T00:06:42;10.43;;;2.80;;
54937;SDS011;52756;52.826;6.214;2023-07-13T00:09:11;7.47;;;2.50;;
54937;SDS011;52756;52.826;6.214;2023-07-13T00:11:40;9.80;;;2.30;;
54937;SDS011;52756;52.826;6.214;2023-07-13T00:14:06;5.85;;;2.10;;
54937;SDS011;52756;52.826;6.214;2023-07-13T00:16:33;6.85;;;2.15;;
54937;SDS011;52756;52.826;6.214;2023-07-13T00:19:03;5.63;;;1.73;;
54937;SDS011;52756;52.826;6.214;2023-07-13T00:21:30;10.32;;;2.53;;
54937;SDS011;52756;52.826;6.214;2023-07-13T00:23:56;14.98;;;3.63;;
54937;SDS011;52756;52.826;6.214;2023-07-13T00:26:21;9.75;;;2.85;;
54937;SDS011;52756;52.826;6.214;2023-07-13T00:28:47;11.82;;;3.22;;
54937;SDS011;52756;52.826;6.214;2023-07-13T00:31:13;9.45;;;2.72;;
54937;SDS011;52756;52.826;6.214;2023-07-13T00:33:39;9.10;;;3.30;;
54937;SDS011;52756;52.826;6.214;2023-07-13T00:36:07;6.60;;;1.83;;
54937;SDS011;52756;52.826;6.214;2023-07-13T00:38:33;8.27;;;2.30;;
54937;SDS011;52756;52.826;6.214;2023-07-13T00:40:59;10.23;;;2.78;;
54937;SDS011;52756;52.826;6.214;2023-07-13T00:43:26;8.35;;;3.03;;
54937;SDS011;52756;52.826;6.214;2023-07-13T00:48:20;9.45;;;2.47;;
54937;SDS011;52756;52.826;6.214;2023-07-13T00:50:48;11.38;;;2.80;;
54937;SDS011;52756;52.826;6.214;2023-07-13T00:53:17;9.20;;;2.78;;
54937;SDS011;52756;52.826;6.214;2023-07-13T00:55:44;8.93;;;2.65;;
54937;SDS011;52756;52.826;6.214;2023-07-13T00:58:10;10.27;;;2.70;;
54937;SDS011;52756;52.826;6.214;2023-07-13T01:00:36;7.03;;;2.38;;
54937;SDS011;52756;52.826;6.214;2023-07-13T01:03:04;5.85;;;2.13;;
54937;SDS011;52756;52.826;6.214;2023-07-13T01:05:30;9.43;;;2.63;;
54937;SDS011;52756;52.826;6.214;2023-07-13T01:07:58;9.27;;;2.45;;
54937;SDS011;52756;52.826;6.214;2023-07-13T01:10:26;6.85;;;2.15;;
54937;SDS011;52756;52.826;6.214;2023-07-13T01:12:52;7.97;;;2.13;;
54937;SDS011;52756;52.826;6.214;2023-07-13T01:15:38;8.45;;;2.47;;
54937;SDS011;52756;52.826;6.214;2023-07-13T01:18:07;7.20;;;2.20;;
54937;SDS011;52756;52.826;6.214;2023-07-13T01:20:35;5.20;;;1.77;;
54937;SDS011;52756;52.826;6.214;2023-07-13T01:23:10;8.90;;;2.20;;
54937;SDS011;52756;52.826;6.214;2023-07-13T01:25:38;4.35;;;1.60;;
54937;SDS011;52756;52.826;6.214;2023-07-13T01:28:07;6.93;;;2.00;;
54937;SDS011;52756;52.826;6.214;2023-07-13T01:30:34;9.10;;;2.45;;
54937;SDS011;52756;52.826;6.214;2023-07-13T01:33:01;6.70;;;1.83;;
54937;SDS011;52756;52.826;6.214;2023-07-13T01:35:27;7.20;;;2.00;;
54937;SDS011;52756;52.826;6.214;2023-07-13T01:37:53;4.68;;;1.67;;
54937;SDS011;52756;52.826;6.214;2023-07-13T01:40:19;5.93;;;1.92;;
54937;SDS011;52756;52.826;6.214;2023-07-13T01:42:45;5.95;;;1.98;;
54937;SDS011;52756;52.826;6.214;2023-07-13T01:45:11;7.45;;;2.10;;
54937;SDS011;52756;52.826;6.214;2023-07-13T01:47:37;8.13;;;2.47;;
54937;SDS011;52756;52.826;6.214;2023-07-13T01:50:03;6.53;;;2.22;;
54937;SDS011;52756;52.826;6.214;2023-07-13T01:52:28;7.30;;;1.80;;
54937;SDS011;52756;52.826;6.214;2023-07-13T01:54:54;6.32;;;2.00;;
54937;SDS011;52756;52.826;6.214;2023-07-13T01:57:20;8.70;;;2.33;;
54937;SDS011;52756;52.826;6.214;2023-07-13T01:59:46;6.90;;;2.03;;
54937;SDS011;52756;52.826;6.214;2023-07-13T02:02:11;7.28;;;1.90;;
54937;SDS011;52756;52.826;6.214;2023-07-13T02:04:37;5.65;;;1.70;;
54937;SDS011;52756;52.826;6.214;2023-07-13T02:07:03;6.90;;;2.00;;
54937;SDS011;52756;52.826;6.214;2023-07-13T02:09:28;5.00;;;1.63;;
54937;SDS011;52756;52.826;6.214;2023-07-13T02:11:54;8.07;;;2.53;;
54937;SDS011;52756;52.826;6.214;2023-07-13T02:14:20;9.07;;;2.28;;
54937;SDS011;52756;52.826;6.214;2023-07-13T02:16:49;6.72;;;2.05;;
54937;SDS011;52756;52.826;6.214;2023-07-13T02:19:14;8.93;;;2.50;;
54937;SDS011;52756;52.826;6.214;2023-07-13T02:21:40;6.90;;;2.08;;
54937;SDS011;52756;52.826;6.214;2023-07-13T02:24:06;6.22;;;2.35;;
54937;SDS011;52756;52.826;6.214;2023-07-13T02:26:31;9.07;;;2.05;;
54937;SDS011;52756;52.826;6.214;2023-07-13T02:28:57;6.07;;;2.33;;
54937;SDS011;52756;52.826;6.214;2023-07-13T02:31:23;9.82;;;2.42;;
54937;SDS011;52756;52.826;6.214;2023-07-13T02:33:49;9.18;;;2.80;;
54937;SDS011;52756;52.826;6.214;2023-07-13T02:36:14;10.32;;;2.75;;
54937;SDS011;52756;52.826;6.214;2023-07-13T02:38:41;11.77;;;3.78;;
54937;SDS011;52756;52.826;6.214;2023-07-13T02:41:07;7.72;;;1.98;;
54937;SDS011;52756;52.826;6.214;2023-07-13T02:43:34;13.38;;;3.90;;
54937;SDS011;52756;52.826;6.214;2023-07-13T02:46:01;11.25;;;3.38;;
54937;SDS011;52756;52.826;6.214;2023-07-13T02:48:33;10.38;;;2.85;;
54937;SDS011;52756;52.826;6.214;2023-07-13T02:50:59;10.00;;;3.33;;
54937;SDS011;52756;52.826;6.214;2023-07-13T02:53:25;7.65;;;3.05;;
54937;SDS011;52756;52.826;6.214;2023-07-13T02:55:50;8.27;;;2.70;;
54937;SDS011;52756;52.826;6.214;2023-07-13T02:58:16;8.93;;;2.38;;
54937;SDS011;52756;52.826;6.214;2023-07-13T03:00:45;8.70;;;2.85;;
54937;SDS011;52756;52.826;6.214;2023-07-13T03:03:12;9.70;;;2.58;;
54937;SDS011;52756;52.826;6.214;2023-07-13T03:05:42;4.80;;;2.10;;
54937;SDS011;52756;52.826;6.214;2023-07-13T03:08:10;9.95;;;3.53;;
54937;SDS011;52756;52.826;6.214;2023-07-13T03:10:36;9.07;;;2.72;;
54937;SDS011;52756;52.826;6.214;2023-07-13T03:13:04;6.85;;;2.38;;
54937;SDS011;52756;52.826;6.214;2023-07-13T03:15:30;10.95;;;3.15;;
54937;SDS011;52756;52.826;6.214;2023-07-13T03:17:56;11.50;;;3.00;;
54937;SDS011;52756;52.826;6.214;2023-07-13T03:20:22;7.03;;;3.00;;
54937;SDS011;52756;52.826;6.214;2023-07-13T03:22:47;9.15;;;2.38;;
54937;SDS011;52756;52.826;6.214;2023-07-13T03:25:13;8.68;;;2.75;;
54937;SDS011;52756;52.826;6.214;2023-07-13T03:27:39;7.25;;;2.67;;
54937;SDS011;52756;52.826;6.214;2023-07-13T03:30:05;10.32;;;2.97;;
54937;SDS011;52756;52.826;6.214;2023-07-13T03:32:31;7.97;;;2.47;;
54937;SDS011;52756;52.826;6.214;2023-07-13T03:34:57;8.70;;;2.55;;
54937;SDS011;52756;52.826;6.214;2023-07-13T03:37:23;7.43;;;2.38;;
54937;SDS011;52756;52.826;6.214;2023-07-13T03:39:49;9.93;;;3.00;;
54937;SDS011;52756;52.826;6.214;2023-07-13T03:42:15;6.47;;;2.90;;
54937;SDS011;52756;52.826;6.214;2023-07-13T03:44:41;6.43;;;2.08;;
54937;SDS011;52756;52.826;6.214;2023-07-13T03:47:11;11.75;;;2.92;;
54937;SDS011;52756;52.826;6.214;2023-07-13T03:49:37;11.23;;;3.25;;
54937;SDS011;52756;52.826;6.214;2023-07-13T03:52:03;7.15;;;2.50;;
54937;SDS011;52756;52.826;6.214;2023-07-13T03:54:29;9.23;;;3.05;;
54937;SDS011;52756;52.826;6.214;2023-07-13T03:56:55;9.05;;;3.15;;
54937;SDS011;52756;52.826;6.214;2023-07-13T03:59:20;8.57;;;3.03;;
54937;SDS011;52756;52.826;6.214;2023-07-13T04:01:46;9.10;;;2.90;;
54937;SDS011;52756;52.826;6.214;2023-07-13T04:04:12;9.02;;;2.92;;
54937;SDS011;52756;52.826;6.214;2023-07-13T04:06:38;7.93;;;2.75;;
54937;SDS011;52756;52.826;6.214;2023-07-13T04:09:04;8.70;;;2.90;;
54937;SDS011;52756;52.826;6.214;2023-07-13T04:11:34;7.80;;;3.42;;
54937;SDS011;52756;52.826;6.214;2023-07-13T04:14:01;7.35;;;2.13;;
54937;SDS011;52756;52.826;6.214;2023-07-13T04:16:27;6.05;;;2.55;;
54937;SDS011;52756;52.826;6.214;2023-07-13T04:18:53;7.45;;;2.53;;
54937;SDS011;52756;52.826;6.214;2023-07-13T04:21:24;9.02;;;2.50;;
54937;SDS011;52756;52.826;6.214;2023-07-13T04:23:50;8.95;;;2.90;;
54937;SDS011;52756;52.826;6.214;2023-07-13T04:26:16;9.25;;;2.67;;
54937;SDS011;52756;52.826;6.214;2023-07-13T04:28:42;6.20;;;2.35;;
54937;SDS011;52756;52.826;6.214;2023-07-13T04:31:08;6.45;;;2.63;;
54937;SDS011;52756;52.826;6.214;2023-07-13T04:33:34;8.82;;;2.55;;
54937;SDS011;52756;52.826;6.214;2023-07-13T04:35:59;6.80;;;2.65;;
54937;SDS011;52756;52.826;6.214;2023-07-13T04:38:27;6.35;;;2.22;;
54937;SDS011;52756;52.826;6.214;2023-07-13T04:40:55;7.93;;;2.45;;
54937;SDS011;52756;52.826;6.214;2023-07-13T04:43:23;7.57;;;2.20;;
54937;SDS011;52756;52.826;6.214;2023-07-13T04:45:50;5.18;;;2.40;;
54937;SDS011;52756;52.826;6.214;2023-07-13T04:48:16;6.93;;;2.30;;
54937;SDS011;52756;52.826;6.214;2023-07-13T04:50:42;8.38;;;3.13;;
54937;SDS011;52756;52.826;6.214;2023-07-13T04:53:08;10.13;;;3.22;;
54937;SDS011;52756;52.826;6.214;2023-07-13T04:55:36;9.55;;;2.70;;
54937;SDS011;52756;52.826;6.214;2023-07-13T04:58:02;6.85;;;2.70;;
54937;SDS011;52756;52.826;6.214;2023-07-13T05:00:28;7.68;;;2.50;;
54937;SDS011;52756;52.826;6.214;2023-07-13T05:02:55;8.70;;;2.95;;
54937;SDS011;52756;52.826;6.214;2023-07-13T05:05:22;7.80;;;2.80;;
54937;SDS011;52756;52.826;6.214;2023-07-13T05:07:49;9.93;;;3.22;;
54937;SDS011;52756;52.826;6.214;2023-07-13T05:10:15;11.60;;;3.20;;
54937;SDS011;52756;52.826;6.214;2023-07-13T05:12:41;12.32;;;3.47;;
54937;SDS011;52756;52.826;6.214;2023-07-13T05:15:08;9.82;;;3.00;;
54937;SDS011;52756;52.826;6.214;2023-07-13T05:17:34;11.85;;;2.85;;
54937;SDS011;52756;52.826;6.214;2023-07-13T05:20:00;8.60;;;2.47;;
54937;SDS011;52756;52.826;6.214;2023-07-13T05:22:26;11.38;;;3.63;;
54937;SDS011;52756;52.826;6.214;2023-07-13T05:24:52;10.65;;;3.17;;
54937;SDS011;52756;52.826;6.214;2023-07-13T05:27:17;10.63;;;3.83;;
54937;SDS011;52756;52.826;6.214;2023-07-13T05:29:43;8.98;;;3.63;;
54937;SDS011;52756;52.826;6.214;2023-07-13T05:32:09;7.15;;;2.40;;
54937;SDS011;52756;52.826;6.214;2023-07-13T05:34:35;8.40;;;3.13;;
54937;SDS011;52756;52.826;6.214;2023-07-13T05:37:00;10.43;;;3.28;;
54937;SDS011;52756;52.826;6.214;2023-07-13T05:39:26;7.88;;;2.42;;
54937;SDS011;52756;52.826;6.214;2023-07-13T05:41:52;9.85;;;3.08;;
54937;SDS011;52756;52.826;6.214;2023-07-13T05:44:18;12.57;;;3.35;;
54937;SDS011;52756;52.826;6.214;2023-07-13T05:46:44;8.05;;;2.38;;
54937;SDS011;52756;52.826;6.214;2023-07-13T05:49:10;9.23;;;2.42;;
54937;SDS011;52756;52.826;6.214;2023-07-13T05:51:36;7.57;;;2.60;;
54937;SDS011;52756;52.826;6.214;2023-07-13T05:54:02;7.25;;;2.35;;
54937;SDS011;52756;52.826;6.214;2023-07-13T05:56:28;8.18;;;2.22;;
54937;SDS011;52756;52.826;6.214;2023-07-13T05:58:54;5.35;;;2.03;;
54937;SDS011;52756;52.826;6.214;2023-07-13T06:01:21;7.40;;;2.45;;
54937;SDS011;52756;52.826;6.214;2023-07-13T06:03:48;5.40;;;2.03;;
54937;SDS011;52756;52.826;6.214;2023-07-13T06:06:14;7.75;;;2.60;;
54937;SDS011;52756;52.826;6.214;2023-07-13T06:08:41;7.15;;;2.28;;
54937;SDS011;52756;52.826;6.214;2023-07-13T06:11:16;6.82;;;1.90;;
54937;SDS011;52756;52.826;6.214;2023-07-13T06:13:44;6.70;;;2.30;;
54937;SDS011;52756;52.826;6.214;2023-07-13T06:16:10;8.45;;;2.15;;
54937;SDS011;52756;52.826;6.214;2023-07-13T06:18:37;6.85;;;1.98;;
54937;SDS011;52756;52.826;6.214;2023-07-13T06:21:10;7.90;;;2.03;;
54937;SDS011;52756;52.826;6.214;2023-07-13T06:23:37;5.97;;;2.17;;
54937;SDS011;52756;52.826;6.214;2023-07-13T06:26:04;7.80;;;2.45;;
54937;SDS011;52756;52.826;6.214;2023-07-13T06:28:30;7.60;;;2.20;;
54937;SDS011;52756;52.826;6.214;2023-07-13T06:30:57;9.55;;;2.38;;
54937;SDS011;52756;52.826;6.214;2023-07-13T06:33:23;6.07;;;1.70;;
54937;SDS011;52756;52.826;6.214;2023-07-13T06:35:50;8.23;;;2.53;;
54937;SDS011;52756;52.826;6.214;2023-07-13T06:38:16;8.30;;;2.83;;
54937;SDS011;52756;52.826;6.214;2023-07-13T06:40:42;6.90;;;1.83;;
54937;SDS011;52756;52.826;6.214;2023-07-13T06:43:08;7.55;;;2.03;;
54937;SDS011;52756;52.826;6.214;2023-07-13T06:45:41;11.25;;;2.50;;
54937;SDS011;52756;52.826;6.214;2023-07-13T06:48:11;8.52;;;2.40;;
54937;SDS011;52756;52.826;6.214;2023-07-13T06:50:37;8.70;;;2.10;;
54937;SDS011;52756;52.826;6.214;2023-07-13T06:53:02;9.43;;;2.58;;
54937;SDS011;52756;52.826;6.214;2023-07-13T06:55:28;6.22;;;1.90;;
54937;SDS011;52756;52.826;6.214;2023-07-13T06:57:54;5.18;;;2.13;;
54937;SDS011;52756;52.826;6.214;2023-07-13T07:00:20;7.72;;;2.35;;
54937;SDS011;52756;52.826;6.214;2023-07-13T07:02:45;8.00;;;1.77;;
54937;SDS011;52756;52.826;6.214;2023-07-13T07:05:11;6.35;;;2.03;;
54937;SDS011;52756;52.826;6.214;2023-07-13T07:07:37;6.50;;;2.25;;
54937;SDS011;52756;52.826;6.214;2023-07-13T07:10:02;6.15;;;2.20;;
54937;SDS011;52756;52.826;6.214;2023-07-13T07:12:28;6.55;;;1.98;;
54937;SDS011;52756;52.826;6.214;2023-07-13T07:14:54;7.15;;;2.40;;
54937;SDS011;52756;52.826;6.214;2023-07-13T07:17:20;6.80;;;2.30;;
54937;SDS011;52756;52.826;6.214;2023-07-13T07:19:45;6.88;;;2.30;;
54937;SDS011;52756;52.826;6.214;2023-07-13T07:22:11;4.45;;;1.80;;
54937;SDS011;52756;52.826;6.214;2023-07-13T07:24:37;6.72;;;2.17;;
54937;SDS011;52756;52.826;6.214;2023-07-13T07:27:03;8.73;;;2.85;;
54937;SDS011;52756;52.826;6.214;2023-07-13T07:29:29;6.03;;;2.13;;
54937;SDS011;52756;52.826;6.214;2023-07-13T07:31:54;6.28;;;1.85;;
54937;SDS011;52756;52.826;6.214;2023-07-13T07:34:20;6.90;;;2.40;;
54937;SDS011;52756;52.826;6.214;2023-07-13T07:36:46;7.93;;;2.60;;
54937;SDS011;52756;52.826;6.214;2023-07-13T07:39:11;8.85;;;2.38;;
54937;SDS011;52756;52.826;6.214;2023-07-13T07:41:37;6.22;;;2.30;;
54937;SDS011;52756;52.826;6.214;2023-07-13T07:44:03;7.40;;;2.03;;
54937;SDS011;52756;52.826;6.214;2023-07-13T07:46:29;8.27;;;2.42;;
54937;SDS011;52756;52.826;6.214;2023-07-13T07:48:55;8.10;;;2.30;;
54937;SDS011;52756;52.826;6.214;2023-07-13T07:51:21;10.60;;;2.38;;
54937;SDS011;52756;52.826;6.214;2023-07-13T07:53:47;11.50;;;3.75;;
54937;SDS011;52756;52.826;6.214;2023-07-13T07:56:14;7.28;;;2.83;;
54937;SDS011;52756;52.826;6.214;2023-07-13T07:58:41;9.00;;;2.85;;
54937;SDS011;52756;52.826;6.214;2023-07-13T08:01:07;9.35;;;3.33;;
54937;SDS011;52756;52.826;6.214;2023-07-13T08:03:33;10.35;;;2.95;;
54937;SDS011;52756;52.826;6.214;2023-07-13T08:05:59;9.50;;;3.20;;
54937;SDS011;52756;52.826;6.214;2023-07-13T08:08:25;7.65;;;2.13;;
54937;SDS011;52756;52.826;6.214;2023-07-13T08:10:51;7.38;;;2.28;;
54937;SDS011;52756;52.826;6.214;2023-07-13T08:13:17;6.85;;;2.35;;
54937;SDS011;52756;52.826;6.214;2023-07-13T08:15:43;6.72;;;2.55;;
54937;SDS011;52756;52.826;6.214;2023-07-13T08:18:09;6.43;;;2.50;;
54937;SDS011;52756;52.826;6.214;2023-07-13T08:20:38;7.90;;;2.58;;
54937;SDS011;52756;52.826;6.214;2023-07-13T08:23:04;5.82;;;2.15;;
54937;SDS011;52756;52.826;6.214;2023-07-13T08:25:31;5.88;;;2.28;;
54937;SDS011;52756;52.826;6.214;2023-07-13T08:27:56;7.45;;;2.60;;
54937;SDS011;52756;52.826;6.214;2023-07-13T08:30:22;6.05;;;2.25;;
54937;SDS011;52756;52.826;6.214;2023-07-13T08:32:48;5.13;;;2.15;;
54937;SDS011;52756;52.826;6.214;2023-07-13T08:35:14;5.95;;;2.67;;
54937;SDS011;52756;52.826;6.214;2023-07-13T08:37:41;6.25;;;2.58;;
54937;SDS011;52756;52.826;6.214;2023-07-13T08:40:08;4.72;;;2.28;;
54937;SDS011;52756;52.826;6.214;2023-07-13T08:42:39;5.72;;;2.42;;
54937;SDS011;52756;52.826;6.214;2023-07-13T08:48:04;7.07;;;2.67;;
54937;SDS011;52756;52.826;6.214;2023-07-13T08:50:56;6.97;;;3.10;;
54937;SDS011;52756;52.826;6.214;2023-07-13T08:53:25;6.78;;;2.55;;
54937;SDS011;52756;52.826;6.214;2023-07-13T08:56:08;7.22;;;2.67;;
54937;SDS011;52756;52.826;6.214;2023-07-13T08:58:41;5.38;;;2.50;;
54937;SDS011;52756;52.826;6.214;2023-07-13T09:03:57;5.22;;;2.35;;
54937;SDS011;52756;52.826;6.214;2023-07-13T09:06:29;5.90;;;2.15;;
54937;SDS011;52756;52.826;6.214;2023-07-13T09:09:02;7.72;;;3.50;;
54937;SDS011;52756;52.826;6.214;2023-07-13T09:12:02;4.97;;;2.17;;
54937;SDS011;52756;52.826;6.214;2023-07-13T09:14:49;4.28;;;2.03;;
54937;SDS011;52756;52.826;6.214;2023-07-13T09:17:19;4.43;;;2.65;;
54937;SDS011;52756;52.826;6.214;2023-07-13T09:19:49;4.43;;;2.38;;
54937;SDS011;52756;52.826;6.214;2023-07-13T09:22:25;4.75;;;2.40;;
54937;SDS011;52756;52.826;6.214;2023-07-13T09:24:55;4.47;;;2.40;;
54937;SDS011;52756;52.826;6.214;2023-07-13T09:27:30;7.70;;;2.35;;
54937;SDS011;52756;52.826;6.214;2023-07-13T09:30:03;5.70;;;2.83;;
54937;SDS011;52756;52.826;6.214;2023-07-13T09:32:56;3.67;;;1.77;;
54937;SDS011;52756;52.826;6.214;2023-07-13T09:35:24;3.63;;;2.00;;
54937;SDS011;52756;52.826;6.214;2023-07-13T09:37:56;3.88;;;1.95;;
54937;SDS011;52756;52.826;6.214;2023-07-13T09:40:28;2.72;;;1.80;;
54937;SDS011;52756;52.826;6.214;2023-07-13T09:43:01;2.70;;;1.60;;
54937;SDS011;52756;52.826;6.214;2023-07-13T09:45:30;4.07;;;2.00;;
54937;SDS011;52756;52.826;6.214;2023-07-13T09:47:59;4.22;;;1.70;;
54937;SDS011;52756;52.826;6.214;2023-07-13T09:50:29;4.93;;;2.05;;
54937;SDS011;52756;52.826;6.214;2023-07-13T09:52:55;4.38;;;2.40;;
54937;SDS011;52756;52.826;6.214;2023-07-13T09:55:31;4.95;;;2.00;;
54937;SDS011;52756;52.826;6.214;2023-07-13T09:58:19;4.35;;;2.03;;
54937;SDS011;52756;52.826;6.214;2023-07-13T10:01:01;4.57;;;2.45;;
54937;SDS011;52756;52.826;6.214;2023-07-13T10:03:31;5.75;;;3.25;;
54937;SDS011;52756;52.826;6.214;2023-07-13T10:06:16;5.50;;;2.88;;
54937;SDS011;52756;52.826;6.214;2023-07-13T10:08:44;5.47;;;2.10;;
54937;SDS011;52756;52.826;6.214;2023-07-13T10:11:27;6.85;;;3.00;;
54937;SDS011;52756;52.826;6.214;2023-07-13T10:13:56;6.18;;;3.25;;
54937;SDS011;52756;52.826;6.214;2023-07-13T10:16:31;6.45;;;3.80;;
54937;SDS011;52756;52.826;6.214;2023-07-13T10:18:58;4.75;;;2.25;;
54937;SDS011;52756;52.826;6.214;2023-07-13T10:25:01;5.47;;;2.13;;
54937;SDS011;52756;52.826;6.214;2023-07-13T10:27:33;5.18;;;2.05;;
54937;SDS011;52756;52.826;6.214;2023-07-13T10:32:38;4.97;;;2.03;;
54937;SDS011;52756;52.826;6.214;2023-07-13T10:35:05;5.00;;;1.80;;
54937;SDS011;52756;52.826;6.214;2023-07-13T10:37:40;6.03;;;1.90;;
54937;SDS011;52756;52.826;6.214;2023-07-13T10:40:16;3.92;;;1.70;;
54937;SDS011;52756;52.826;6.214;2023-07-13T10:42:48;3.35;;;1.60;;
54937;SDS011;52756;52.826;6.214;2023-07-13T10:45:18;4.18;;;1.27;;
54937;SDS011;52756;52.826;6.214;2023-07-13T10:47:46;4.07;;;1.17;;
54937;SDS011;52756;52.826;6.214;2023-07-13T10:50:15;2.85;;;1.20;;
54937;SDS011;52756;52.826;6.214;2023-07-13T10:55:34;3.28;;;1.35;;
54937;SDS011;52756;52.826;6.214;2023-07-13T10:58:02;4.30;;;1.48;;
54937;SDS011;52756;52.826;6.214;2023-07-13T11:03:29;5.22;;;1.92;;
54937;SDS011;52756;52.826;6.214;2023-07-13T11:08:54;6.43;;;1.88;;
54937;SDS011;52756;52.826;6.214;2023-07-13T11:18:45;4.88;;;1.77;;
54937;SDS011;52756;52.826;6.214;2023-07-13T11:21:23;4.05;;;1.55;;
54937;SDS011;52756;52.826;6.214;2023-07-13T11:26:42;4.20;;;1.80;;
54937;SDS011;52756;52.826;6.214;2023-07-13T11:31:43;4.25;;;1.67;;
54937;SDS011;52756;52.826;6.214;2023-07-13T11:34:16;5.90;;;1.83;;
54937;SDS011;52756;52.826;6.214;2023-07-13T11:36:49;4.30;;;1.40;;
54937;SDS011;52756;52.826;6.214;2023-07-13T11:39:48;4.78;;;1.83;;
54937;SDS011;52756;52.826;6.214;2023-07-13T11:42:09;4.88;;;1.88;;
54937;SDS011;52756;52.826;6.214;2023-07-13T11:44:41;4.15;;;1.42;;
54937;SDS011;52756;52.826;6.214;2023-07-13T11:47:18;5.55;;;2.10;;
54937;SDS011;52756;52.826;6.214;2023-07-13T11:49:51;4.13;;;1.92;;
54937;SDS011;52756;52.826;6.214;2023-07-13T11:52:32;3.75;;;1.92;;
54937;SDS011;52756;52.826;6.214;2023-07-13T11:55:00;4.70;;;1.50;;
54937;SDS011;52756;52.826;6.214;2023-07-13T11:59:54;6.82;;;1.60;;
54937;SDS011;52756;52.826;6.214;2023-07-13T12:04:49;5.28;;;1.70;;
54937;SDS011;52756;52.826;6.214;2023-07-13T12:07:18;4.90;;;1.48;;
54937;SDS011;52756;52.826;6.214;2023-07-13T12:09:44;2.97;;;1.17;;
54937;SDS011;52756;52.826;6.214;2023-07-13T12:12:14;3.42;;;1.35;;
54937;SDS011;52756;52.826;6.214;2023-07-13T12:17:11;3.15;;;1.23;;
54937;SDS011;52756;52.826;6.214;2023-07-13T12:19:41;4.22;;;1.45;;
54937;SDS011;52756;52.826;6.214;2023-07-13T12:22:08;3.50;;;1.17;;
54937;SDS011;52756;52.826;6.214;2023-07-13T12:24:36;4.25;;;1.83;;
54937;SDS011;52756;52.826;6.214;2023-07-13T12:27:03;3.60;;;1.38;;
54937;SDS011;52756;52.826;6.214;2023-07-13T12:29:31;4.03;;;1.40;;
54937;SDS011;52756;52.826;6.214;2023-07-13T12:31:57;3.45;;;1.10;;
54937;SDS011;52756;52.826;6.214;2023-07-13T12:34:25;6.15;;;1.35;;
54937;SDS011;52756;52.826;6.214;2023-07-13T12:36:55;3.47;;;1.27;;
54937;SDS011;52756;52.826;6.214;2023-07-13T12:41:53;3.95;;;1.10;;
54937;SDS011;52756;52.826;6.214;2023-07-13T12:44:34;5.95;;;1.10;;
54937;SDS011;52756;52.826;6.214;2023-07-13T12:47:09;2.80;;;0.90;;
54937;SDS011;52756;52.826;6.214;2023-07-13T12:49:41;4.05;;;1.10;;
54937;SDS011;52756;52.826;6.214;2023-07-13T12:52:50;4.03;;;1.20;;
54937;SDS011;52756;52.826;6.214;2023-07-13T12:55:13;5.53;;;1.25;;
54937;SDS011;52756;52.826;6.214;2023-07-13T12:57:52;5.15;;;1.13;;
54937;SDS011;52756;52.826;6.214;2023-07-13T13:00:28;4.75;;;1.40;;
54937;SDS011;52756;52.826;6.214;2023-07-13T13:02:58;2.45;;;1.08;;
54937;SDS011;52756;52.826;6.214;2023-07-13T13:05:29;4.22;;;1.00;;
54937;SDS011;52756;52.826;6.214;2023-07-13T13:07:56;5.60;;;1.48;;
54937;SDS011;52756;52.826;6.214;2023-07-13T13:10:22;5.93;;;1.70;;
54937;SDS011;52756;52.826;6.214;2023-07-13T13:12:48;3.03;;;1.00;;
54937;SDS011;52756;52.826;6.214;2023-07-13T13:15:14;3.28;;;1.15;;
54937;SDS011;52756;52.826;6.214;2023-07-13T13:17:41;5.97;;;1.20;;
54937;SDS011;52756;52.826;6.214;2023-07-13T13:20:17;3.80;;;1.10;;
54937;SDS011;52756;52.826;6.214;2023-07-13T13:22:44;4.22;;;1.10;;
54937;SDS011;52756;52.826;6.214;2023-07-13T13:25:11;2.30;;;0.80;;
54937;SDS011;52756;52.826;6.214;2023-07-13T13:27:39;3.95;;;1.17;;
54937;SDS011;52756;52.826;6.214;2023-07-13T13:30:13;3.25;;;1.15;;
54937;SDS011;52756;52.826;6.214;2023-07-13T13:32:44;2.83;;;0.90;;
54937;SDS011;52756;52.826;6.214;2023-07-13T13:35:15;3.55;;;1.20;;
54937;SDS011;52756;52.826;6.214;2023-07-13T13:37:43;4.47;;;1.23;;
54937;SDS011;52756;52.826;6.214;2023-07-13T13:40:22;3.40;;;1.08;;
54937;SDS011;52756;52.826;6.214;2023-07-13T13:42:48;3.35;;;1.00;;
54937;SDS011;52756;52.826;6.214;2023-07-13T13:45:14;3.03;;;1.30;;
54937;SDS011;52756;52.826;6.214;2023-07-13T13:47:43;2.63;;;1.30;;
54937;SDS011;52756;52.826;6.214;2023-07-13T13:50:16;3.78;;;1.13;;
54937;SDS011;52756;52.826;6.214;2023-07-13T13:52:44;2.72;;;1.15;;
54937;SDS011;52756;52.826;6.214;2023-07-13T13:55:20;3.53;;;0.90;;
54937;SDS011;52756;52.826;6.214;2023-07-13T13:57:49;4.28;;;1.15;;
54937;SDS011;52756;52.826;6.214;2023-07-13T14:00:15;3.88;;;1.40;;
54937;SDS011;52756;52.826;6.214;2023-07-13T14:02:46;4.45;;;1.25;;
54937;SDS011;52756;52.826;6.214;2023-07-13T14:05:14;5.55;;;1.45;;
54937;SDS011;52756;52.826;6.214;2023-07-13T14:07:45;5.25;;;1.13;;
54937;SDS011;52756;52.826;6.214;2023-07-13T14:10:12;5.32;;;1.48;;
54937;SDS011;52756;52.826;6.214;2023-07-13T14:12:41;3.65;;;1.30;;
54937;SDS011;52756;52.826;6.214;2023-07-13T14:15:28;4.88;;;1.27;;
54937;SDS011;52756;52.826;6.214;2023-07-13T14:17:57;2.72;;;1.05;;
54937;SDS011;52756;52.826;6.214;2023-07-13T14:20:23;3.03;;;1.33;;
54937;SDS011;52756;52.826;6.214;2023-07-13T14:22:51;4.75;;;1.30;;
54937;SDS011;52756;52.826;6.214;2023-07-13T14:25:18;3.97;;;1.25;;
54937;SDS011;52756;52.826;6.214;2023-07-13T14:27:45;3.30;;;1.30;;
54937;SDS011;52756;52.826;6.214;2023-07-13T14:30:15;3.80;;;1.20;;
54937;SDS011;52756;52.826;6.214;2023-07-13T14:32:43;3.53;;;1.42;;
54937;SDS011;52756;52.826;6.214;2023-07-13T14:35:13;4.38;;;1.17;;
54937;SDS011;52756;52.826;6.214;2023-07-13T14:37:40;4.07;;;1.55;;
54937;SDS011;52756;52.826;6.214;2023-07-13T14:42:42;3.55;;;1.13;;
54937;SDS011;52756;52.826;6.214;2023-07-13T14:45:12;3.75;;;1.30;;
54937;SDS011;52756;52.826;6.214;2023-07-13T14:47:42;3.03;;;1.10;;
54937;SDS011;52756;52.826;6.214;2023-07-13T14:50:13;5.22;;;1.20;;
54937;SDS011;52756;52.826;6.214;2023-07-13T14:52:44;5.32;;;1.00;;
54937;SDS011;52756;52.826;6.214;2023-07-13T14:55:12;3.97;;;1.20;;
54937;SDS011;52756;52.826;6.214;2023-07-13T14:57:43;3.55;;;1.70;;
54937;SDS011;52756;52.826;6.214;2023-07-13T15:00:12;3.28;;;1.20;;
54937;SDS011;52756;52.826;6.214;2023-07-13T15:02:40;4.88;;;1.40;;
54937;SDS011;52756;52.826;6.214;2023-07-13T15:05:15;4.20;;;1.40;;
54937;SDS011;52756;52.826;6.214;2023-07-13T15:07:44;3.92;;;1.30;;
54937;SDS011;52756;52.826;6.214;2023-07-13T15:10:20;3.58;;;1.13;;
54937;SDS011;52756;52.826;6.214;2023-07-13T15:13:00;6.70;;;1.80;;
54937;SDS011;52756;52.826;6.214;2023-07-13T15:15:38;7.55;;;1.95;;
54937;SDS011;52756;52.826;6.214;2023-07-13T15:18:11;4.90;;;1.60;;
54937;SDS011;52756;52.826;6.214;2023-07-13T15:20:39;4.43;;;1.27;;
54937;SDS011;52756;52.826;6.214;2023-07-13T15:23:05;6.05;;;1.67;;
54937;SDS011;52756;52.826;6.214;2023-07-13T15:25:32;4.88;;;1.52;;
54937;SDS011;52756;52.826;6.214;2023-07-13T15:27:58;4.32;;;1.40;;
54937;SDS011;52756;52.826;6.214;2023-07-13T15:30:27;4.65;;;1.23;;
54937;SDS011;52756;52.826;6.214;2023-07-13T15:32:55;5.30;;;2.00;;
54937;SDS011;52756;52.826;6.214;2023-07-13T15:35:26;4.32;;;1.40;;
54937;SDS011;52756;52.826;6.214;2023-07-13T15:37:53;3.55;;;1.75;;
54937;SDS011;52756;52.826;6.214;2023-07-13T15:40:19;5.78;;;1.85;;
54937;SDS011;52756;52.826;6.214;2023-07-13T15:42:47;2.65;;;1.45;;